7NC6 weather

Kimrey Airport
Mebane, North Carolina, United States

Public forecast

Using degrees Fahrenheit for public forecast. Weather courtesy of forecast.io.

Closest aviation weather report (METAR) to Kimrey Airport

Report is more than 2 hours old.

Closest report is Burlington Alamance Regional Airport, 7.2 nm (13.3 km) W. Retrieved 2019/11/13 14:54 UTC (5 hours ago):

KBUY 131454Z AUTO 02011KT 10SM CLR 00/M11 A3044 RMK AO2 SLP315 T00001111 51020

Closest aviation forecast (TAF) to Kimrey Airport

Closest forecast is Raleigh Durham International Airport, 28.3 nm (52.4 km) ESE. Retrieved 2019/11/13 18:42 UTC (1 hour ago):

TAF KRDU 131739Z 1318/1418 05007KT P6SM FEW250 FM141500 03004KT P6SM SCT020 BKN045 OVC200